Time;durP1;ratioP1;P1;durP2;ratioP2;P2;SDS_P1;SDS_P2;PMS_P1;PMS_P2;Temp;Humidity;BMP_temperature;BMP_pressure;BME280_temperature;BME280_humidity;BME280_pressure;Samples;Min_cycle;Max_cycle;Signal;HPM_P1;HPM_P2
2021/09/06 00:00:03;;;;;;;2.70;2.50;;;16.10;76.60;;;;;;5069947;28;20259;-72
2021/09/06 00:02:28;;;;;;;3.92;1.83;;;16.10;76.80;;;;;;5074804;28;20248;-72
2021/09/06 00:04:54;;;;;;;2.42;1.98;;;16.10;76.00;;;;;;5068579;28;20191;-72
2021/09/06 00:07:20;;;;;;;2.38;1.92;;;16.10;76.30;;;;;;5066612;28;20247;-72
2021/09/06 00:09:56;;;;;;;2.10;2.00;;;16.10;76.30;;;;;;5068053;28;20179;-73
2021/09/06 00:12:22;;;;;;;2.47;2.30;;;16.10;76.30;;;;;;5072282;28;20280;-73
2021/09/06 00:14:48;;;;;;;2.10;2.00;;;16.10;76.20;;;;;;5074389;28;20609;-72
2021/09/06 00:17:13;;;;;;;2.97;2.35;;;16.10;76.70;;;;;;5077034;28;20213;-72
2021/09/06 00:19:39;;;;;;;2.15;2.05;;;16.10;76.00;;;;;;5072681;28;20239;-71
2021/09/06 00:22:05;;;;;;;1.80;1.80;;;16.10;76.00;;;;;;5074539;28;20211;-71
2021/09/06 00:24:33;;;;;;;2.28;2.17;;;16.10;76.00;;;;;;5069663;28;20605;-72
2021/09/06 00:26:59;;;;;;;2.00;1.95;;;16.10;76.80;;;;;;5071388;28;20240;-72
2021/09/06 00:29:24;;;;;;;1.70;1.70;;;16.10;76.70;;;;;;5066474;28;20687;-72
2021/09/06 00:31:50;;;;;;;1.75;1.65;;;16.10;76.80;;;;;;5078980;28;20292;-72
2021/09/06 00:34:16;;;;;;;2.38;2.28;;;16.10;76.30;;;;;;5074469;28;20266;-71
2021/09/06 00:36:41;;;;;;;1.83;1.73;;;16.10;76.50;;;;;;5072776;28;20191;-72
2021/09/06 00:39:07;;;;;;;2.67;2.20;;;16.10;77.00;;;;;;5066346;28;20183;-72
2021/09/06 00:41:33;;;;;;;4.93;2.42;;;16.00;77.10;;;;;;5076138;28;20179;-71
2021/09/06 00:43:59;;;;;;;2.30;2.20;;;16.00;76.70;;;;;;5064333;28;20185;-72
2021/09/06 00:46:25;;;;;;;2.50;2.35;;;16.00;77.00;;;;;;5068564;28;20191;-72
2021/09/06 00:48:51;;;;;;;2.22;2.17;;;16.00;76.60;;;;;;5068487;28;20179;-72
2021/09/06 00:51:17;;;;;;;2.08;1.98;;;15.90;77.20;;;;;;5076847;28;20189;-72
2021/09/06 00:53:43;;;;;;;2.47;2.28;;;15.90;77.00;;;;;;5075353;28;20880;-72
2021/09/06 00:56:09;;;;;;;3.60;2.35;;;15.80;77.40;;;;;;5068536;28;20188;-72
2021/09/06 00:58:36;;;;;;;2.53;2.42;;;15.80;77.40;;;;;;5062505;28;20202;-72
2021/09/06 01:01:02;;;;;;;2.20;2.10;;;15.70;78.10;;;;;;5069096;28;20679;-71
2021/09/06 01:03:28;;;;;;;7.07;2.30;;;15.70;78.60;;;;;;5065916;28;20192;-72
2021/09/06 01:05:54;;;;;;;2.85;2.65;;;15.60;78.70;;;;;;5072232;28;20182;-72
2021/09/06 01:08:20;;;;;;;2.80;2.60;;;15.60;79.10;;;;;;5073075;28;20548;-71
2021/09/06 01:10:45;;;;;;;3.17;2.97;;;15.60;79.00;;;;;;5072150;28;20197;-71
2021/09/06 01:13:11;;;;;;;2.72;2.50;;;15.50;78.90;;;;;;5062282;28;20998;-72
2021/09/06 01:15:37;;;;;;;2.42;2.33;;;15.50;79.80;;;;;;5064301;28;20708;-71
2021/09/06 01:18:03;;;;;;;2.17;1.98;;;15.50;79.10;;;;;;5070523;28;20597;-71
2021/09/06 01:20:29;;;;;;;2.47;2.40;;;15.40;79.50;;;;;;5067742;28;20665;-72
2021/09/06 01:22:54;;;;;;;2.30;2.15;;;15.40;79.90;;;;;;5076352;28;20202;-71
2021/09/06 01:25:20;;;;;;;2.72;2.60;;;15.40;80.50;;;;;;5062451;28;20183;-73
2021/09/06 01:27:47;;;;;;;2.42;2.20;;;15.40;81.40;;;;;;5075679;28;20220;-72
2021/09/06 01:30:13;;;;;;;2.55;2.40;;;15.40;81.20;;;;;;5070456;28;20239;-71
2021/09/06 01:32:39;;;;;;;3.42;3.15;;;15.40;82.00;;;;;;5071641;28;20681;-72
2021/09/06 01:35:06;;;;;;;4.28;3.42;;;15.40;81.50;;;;;;5063133;28;20213;-71
2021/09/06 01:37:31;;;;;;;2.45;2.35;;;15.40;81.40;;;;;;5063233;28;20179;-72
2021/09/06 01:39:57;;;;;;;3.65;2.35;;;15.40;81.60;;;;;;5073854;28;20197;-72
2021/09/06 01:42:23;;;;;;;2.70;2.50;;;15.40;81.60;;;;;;5065218;28;20657;-72
2021/09/06 01:44:48;;;;;;;3.28;3.08;;;15.40;82.60;;;;;;5064447;28;20191;-71
2021/09/06 01:47:14;;;;;;;2.83;2.63;;;15.40;83.10;;;;;;5076897;28;20659;-72
2021/09/06 01:49:40;;;;;;;3.95;3.13;;;15.40;83.80;;;;;;5061925;28;20179;-72
2021/09/06 01:52:06;;;;;;;4.75;3.25;;;15.40;82.90;;;;;;5069222;28;20568;-72
2021/09/06 01:54:31;;;;;;;2.88;2.70;;;15.50;83.80;;;;;;5064279;28;20185;-71
2021/09/06 01:56:57;;;;;;;2.20;2.10;;;15.50;83.20;;;;;;5070767;28;20257;-74
2021/09/06 01:59:23;;;;;;;2.72;2.63;;;15.50;83.80;;;;;;5059107;28;20183;-73
2021/09/06 02:01:49;;;;;;;3.05;2.90;;;15.50;83.30;;;;;;5068870;28;20240;-72
2021/09/06 02:04:14;;;;;;;2.78;2.67;;;15.50;83.90;;;;;;5069972;28;20646;-71
2021/09/06 02:06:41;;;;;;;2.97;2.78;;;15.50;84.10;;;;;;5070762;28;20197;-72
2021/09/06 02:09:07;;;;;;;4.43;3.33;;;15.50;84.10;;;;;;5067031;28;20180;-71
2021/09/06 02:11:33;;;;;;;3.45;3.22;;;15.50;83.70;;;;;;5069409;28;20182;-71
2021/09/06 02:13:59;;;;;;;3.05;2.85;;;15.50;83.50;;;;;;5068203;28;20179;-73
2021/09/06 02:16:25;;;;;;;3.25;2.97;;;15.60;84.10;;;;;;5074624;28;20182;-73
2021/09/06 02:18:51;;;;;;;4.03;3.80;;;15.60;84.00;;;;;;5067627;28;20175;-71
2021/09/06 02:21:17;;;;;;;3.25;3.03;;;15.60;83.60;;;;;;5065231;28;20179;-72
2021/09/06 02:23:44;;;;;;;3.25;3.05;;;15.50;84.10;;;;;;5067969;28;20200;-71
2021/09/06 02:26:12;;;;;;;3.85;3.05;;;15.50;84.30;;;;;;5071468;28;20301;-72
2021/09/06 02:28:38;;;;;;;3.13;2.90;;;15.50;84.70;;;;;;5068588;28;20261;-71
2021/09/06 02:31:04;;;;;;;3.72;3.50;;;15.50;83.80;;;;;;5063680;28;20193;-72
2021/09/06 02:33:29;;;;;;;3.00;2.80;;;15.50;83.80;;;;;;5075217;28;20257;-72
2021/09/06 02:35:55;;;;;;;3.25;2.58;;;15.50;84.20;;;;;;5071308;28;20186;-71
2021/09/06 02:38:21;;;;;;;3.05;2.85;;;15.50;84.90;;;;;;5070268;28;20178;-73
2021/09/06 02:40:47;;;;;;;2.58;2.47;;;15.50;84.70;;;;;;5071885;28;20198;-72
2021/09/06 02:43:12;;;;;;;3.05;2.92;;;15.50;84.70;;;;;;5072616;28;20197;-74
2021/09/06 02:45:38;;;;;;;3.05;2.85;;;15.50;83.80;;;;;;5066422;28;20183;-73
2021/09/06 02:48:04;;;;;;;2.85;2.65;;;15.50;84.80;;;;;;5078877;28;20261;-73
2021/09/06 02:50:30;;;;;;;3.33;2.92;;;15.50;84.30;;;;;;5073368;28;20576;-73
2021/09/06 02:52:55;;;;;;;3.00;2.80;;;15.50;84.60;;;;;;5075075;28;20207;-73
2021/09/06 02:55:21;;;;;;;2.95;2.85;;;15.50;84.60;;;;;;5067836;28;20180;-73
2021/09/06 02:57:47;;;;;;;2.58;2.47;;;15.50;84.80;;;;;;5071769;28;20243;-74
2021/09/06 03:00:13;;;;;;;3.40;3.10;;;15.50;85.40;;;;;;5075559;28;20194;-71
2021/09/06 03:02:39;;;;;;;2.92;2.80;;;15.50;84.80;;;;;;5077147;28;20187;-73
2021/09/06 03:05:06;;;;;;;2.97;2.78;;;15.40;85.00;;;;;;5073931;28;20190;-72
2021/09/06 03:07:32;;;;;;;3.60;3.28;;;15.40;85.80;;;;;;5068528;28;20257;-72
2021/09/06 03:09:58;;;;;;;3.05;2.83;;;15.40;84.90;;;;;;5078763;28;20210;-72
2021/09/06 03:12:24;;;;;;;2.70;2.55;;;15.40;84.80;;;;;;5097505;28;20221;-74
2021/09/06 03:14:49;;;;;;;2.83;2.67;;;15.40;85.10;;;;;;5068385;28;20183;-73
2021/09/06 03:17:15;;;;;;;3.15;2.90;;;15.40;85.50;;;;;;5075227;28;20568;-74
2021/09/06 03:19:41;;;;;;;2.53;2.42;;;15.40;84.70;;;;;;5075361;28;20202;-73
2021/09/06 03:22:06;;;;;;;2.75;2.55;;;15.40;84.60;;;;;;5077740;28;20309;-73
2021/09/06 03:24:32;;;;;;;2.85;2.75;;;15.40;84.70;;;;;;5065354;28;20893;-72
2021/09/06 03:26:58;;;;;;;3.28;3.00;;;15.40;85.00;;;;;;5074672;28;20193;-71
2021/09/06 03:29:24;;;;;;;3.40;3.25;;;15.40;85.00;;;;;;5063731;28;20187;-72
2021/09/06 03:31:49;;;;;;;2.80;2.60;;;15.30;85.10;;;;;;5065270;28;20219;-74
2021/09/06 03:34:15;;;;;;;2.53;2.35;;;15.30;85.10;;;;;;5066901;28;20210;-71
2021/09/06 03:36:41;;;;;;;3.33;3.13;;;15.20;85.40;;;;;;5072909;28;20247;-73
2021/09/06 03:39:07;;;;;;;4.88;3.00;;;15.20;85.80;;;;;;5072713;28;20175;-73
2021/09/06 03:41:33;;;;;;;3.85;3.53;;;15.10;86.10;;;;;;5076040;28;20277;-73
2021/09/06 03:43:59;;;;;;;3.25;3.05;;;15.10;85.80;;;;;;5060615;28;20230;-72
2021/09/06 03:46:25;;;;;;;3.10;2.95;;;15.10;86.00;;;;;;5074545;28;21011;-71
2021/09/06 03:48:50;;;;;;;3.28;3.08;;;15.10;86.30;;;;;;5066005;28;20198;-72
2021/09/06 03:51:16;;;;;;;3.10;2.80;;;15.00;86.50;;;;;;5075731;28;20183;-72
2021/09/06 03:53:42;;;;;;;3.40;3.10;;;15.00;86.90;;;;;;5068778;28;20219;-71
2021/09/06 03:56:07;;;;;;;3.10;3.00;;;14.90;87.40;;;;;;5070785;28;20195;-72
2021/09/06 03:58:33;;;;;;;3.78;3.28;;;14.90;87.60;;;;;;5069227;28;20279;-71
2021/09/06 04:00:59;;;;;;;3.63;3.28;;;14.90;87.30;;;;;;5072040;28;20188;-71
2021/09/06 04:03:25;;;;;;;3.08;2.88;;;14.90;87.60;;;;;;5069244;28;20195;-71
2021/09/06 04:05:50;;;;;;;3.95;3.42;;;14.90;87.40;;;;;;5065240;28;20187;-71
2021/09/06 04:08:16;;;;;;;3.10;3.00;;;14.80;87.60;;;;;;5070975;28;20216;-72
2021/09/06 04:10:42;;;;;;;3.70;3.33;;;14.80;88.50;;;;;;5075563;28;20640;-72
2021/09/06 04:13:08;;;;;;;4.22;3.92;;;14.80;88.80;;;;;;5071548;28;20218;-72
2021/09/06 04:15:33;;;;;;;3.80;3.53;;;14.70;88.80;;;;;;5062642;28;20197;-72
2021/09/06 04:17:59;;;;;;;4.78;3.88;;;14.70;89.20;;;;;;5076530;28;20202;-72
2021/09/06 04:20:25;;;;;;;3.75;3.55;;;14.70;89.50;;;;;;5071407;28;20961;-72
2021/09/06 04:22:50;;;;;;;5.13;4.13;;;14.70;89.30;;;;;;5071977;28;20201;-72
2021/09/06 04:25:17;;;;;;;5.30;4.03;;;14.70;89.30;;;;;;5067853;28;20186;-72
2021/09/06 04:27:43;;;;;;;4.22;3.92;;;14.70;89.30;;;;;;5065879;28;20183;-72
2021/09/06 04:30:09;;;;;;;3.75;3.55;;;14.70;89.20;;;;;;5072242;28;20193;-72
2021/09/06 04:32:35;;;;;;;4.75;3.67;;;14.80;89.00;;;;;;5074091;28;20222;-72
2021/09/06 04:35:00;;;;;;;3.95;3.65;;;14.80;89.10;;;;;;5075243;28;20178;-72
2021/09/06 04:37:26;;;;;;;4.38;3.75;;;14.80;89.20;;;;;;5065999;28;20179;-71
2021/09/06 04:39:52;;;;;;;3.90;3.70;;;14.80;89.20;;;;;;5070789;28;20229;-72
2021/09/06 04:42:18;;;;;;;4.30;3.90;;;14.80;89.80;;;;;;5074240;28;20185;-72
2021/09/06 04:44:44;;;;;;;3.53;3.22;;;14.80;89.20;;;;;;5070911;28;20861;-71
2021/09/06 04:47:10;;;;;;;4.68;4.15;;;14.80;89.80;;;;;;5077546;28;20953;-71
2021/09/06 04:49:36;;;;;;;3.85;3.65;;;14.90;89.30;;;;;;5074293;28;20178;-71
2021/09/06 04:52:02;;;;;;;4.35;4.05;;;14.90;89.30;;;;;;5065178;28;20214;-73
2021/09/06 04:54:28;;;;;;;4.05;3.65;;;14.90;89.20;;;;;;5070435;28;20174;-71
2021/09/06 04:56:53;;;;;;;4.10;3.70;;;14.90;89.40;;;;;;5075234;28;20261;-72
2021/09/06 04:59:23;;;;;;;4.70;4.22;;;15.00;88.90;;;;;;5075412;28;20191;-72
2021/09/06 05:01:49;;;;;;;3.65;3.50;;;15.00;88.80;;;;;;5064139;28;20226;-71
2021/09/06 05:04:15;;;;;;;4.03;3.65;;;15.00;89.20;;;;;;5066373;28;20186;-73
2021/09/06 05:06:41;;;;;;;4.85;3.75;;;15.00;89.10;;;;;;5078103;28;20174;-77
2021/09/06 05:09:07;;;;;;;4.18;3.95;;;15.00;89.00;;;;;;5071631;28;20190;-76
2021/09/06 05:11:33;;;;;;;5.78;4.10;;;15.00;89.00;;;;;;5069896;28;20180;-76
2021/09/06 05:13:59;;;;;;;3.67;3.42;;;15.10;88.90;;;;;;5067540;28;20187;-76
2021/09/06 05:16:26;;;;;;;8.65;4.03;;;15.10;88.90;;;;;;5073797;28;20186;-74
2021/09/06 05:18:52;;;;;;;4.07;3.83;;;15.20;88.60;;;;;;5067806;28;20183;-74
2021/09/06 05:21:18;;;;;;;4.00;3.70;;;15.20;88.80;;;;;;5076091;28;20186;-74
2021/09/06 05:23:43;;;;;;;4.20;3.85;;;15.20;88.90;;;;;;5069208;28;20662;-74
2021/09/06 05:26:09;;;;;;;4.30;3.90;;;15.20;89.50;;;;;;5067567;28;20183;-75
2021/09/06 05:28:35;;;;;;;4.20;3.70;;;15.30;89.00;;;;;;5067186;28;20214;-75
2021/09/06 05:31:03;;;;;;;5.00;3.55;;;15.30;89.10;;;;;;5066847;28;20279;-75
2021/09/06 05:33:29;;;;;;;4.03;3.75;;;15.40;89.00;;;;;;5072705;28;20696;-75
2021/09/06 05:35:55;;;;;;;4.03;3.70;;;15.40;89.40;;;;;;5074912;28;20180;-75
2021/09/06 05:38:21;;;;;;;4.57;4.20;;;15.50;88.60;;;;;;5072928;28;20175;-75
2021/09/06 05:40:47;;;;;;;4.63;4.07;;;15.50;88.80;;;;;;5068842;28;20185;-74
2021/09/06 05:43:13;;;;;;;4.20;3.92;;;15.50;88.80;;;;;;5073655;28;20193;-72
2021/09/06 05:45:38;;;;;;;4.22;3.92;;;15.60;88.50;;;;;;5065631;28;20186;-72
2021/09/06 05:48:04;;;;;;;4.50;4.10;;;15.70;88.60;;;;;;5067344;28;20727;-72
2021/09/06 05:50:30;;;;;;;4.30;3.95;;;15.70;88.30;;;;;;5071523;28;20939;-71
2021/09/06 05:52:56;;;;;;;5.72;3.38;;;15.80;88.20;;;;;;5066857;28;20206;-77
2021/09/06 05:55:21;;;;;;;4.47;3.80;;;15.80;88.50;;;;;;5072639;28;20185;-79
2021/09/06 05:57:47;;;;;;;5.57;3.90;;;15.90;88.40;;;;;;5071109;28;20201;-79
2021/09/06 06:00:13;;;;;;;4.18;3.88;;;16.00;88.10;;;;;;5072870;28;20179;-79
2021/09/06 06:02:39;;;;;;;3.85;3.60;;;16.10;88.00;;;;;;5064519;28;20182;-76
2021/09/06 06:05:05;;;;;;;4.00;3.75;;;16.10;87.80;;;;;;5072613;28;20608;-77
2021/09/06 06:07:31;;;;;;;4.90;3.58;;;16.20;87.40;;;;;;5072400;28;20187;-76
2021/09/06 06:09:57;;;;;;;5.03;4.03;;;16.30;87.20;;;;;;5062839;28;20176;-76
2021/09/06 06:12:23;;;;;;;4.22;3.85;;;16.30;87.30;;;;;;5067897;28;20297;-74
2021/09/06 06:14:49;;;;;;;6.53;3.75;;;16.40;87.00;;;;;;5075637;28;20217;-76
2021/09/06 06:17:15;;;;;;;5.10;4.60;;;16.40;86.80;;;;;;5074878;28;20931;-74
2021/09/06 06:19:41;;;;;;;5.80;4.05;;;16.50;86.90;;;;;;5065977;28;20188;-73
2021/09/06 06:22:07;;;;;;;4.05;3.75;;;16.60;86.80;;;;;;5071009;28;20202;-74
2021/09/06 06:24:32;;;;;;;5.78;4.20;;;16.60;87.00;;;;;;5061774;28;20210;-73
2021/09/06 06:26:58;;;;;;;4.00;3.60;;;16.70;86.80;;;;;;5069166;28;20182;-75
2021/09/06 06:29:24;;;;;;;6.53;3.53;;;16.70;86.60;;;;;;5067402;28;20186;-74
2021/09/06 06:31:50;;;;;;;4.07;3.78;;;16.80;86.60;;;;;;5072896;28;20188;-72
2021/09/06 06:34:15;;;;;;;3.40;3.20;;;16.80;86.60;;;;;;5061078;28;20282;-73
2021/09/06 06:36:41;;;;;;;3.80;3.47;;;16.90;86.30;;;;;;5070432;28;20183;-73
2021/09/06 06:39:07;;;;;;;3.95;3.65;;;16.90;85.80;;;;;;5063713;28;20265;-72
2021/09/06 06:41:33;;;;;;;3.80;3.50;;;17.00;85.80;;;;;;5073048;28;20187;-73
2021/09/06 06:43:58;;;;;;;4.90;4.50;;;17.10;85.90;;;;;;5072713;28;20182;-72
2021/09/06 06:46:24;;;;;;;4.28;3.90;;;17.20;85.90;;;;;;5072184;28;20189;-74
2021/09/06 06:48:50;;;;;;;4.60;3.58;;;17.20;85.80;;;;;;5068449;28;20191;-72
2021/09/06 06:51:16;;;;;;;4.25;4.05;;;17.30;85.20;;;;;;5063747;28;20222;-73
2021/09/06 06:53:42;;;;;;;4.35;4.03;;;17.40;85.00;;;;;;5062955;28;20269;-75
2021/09/06 06:56:08;;;;;;;3.33;3.22;;;17.40;85.20;;;;;;5071031;28;20183;-76
2021/09/06 06:58:34;;;;;;;3.72;3.53;;;17.50;85.00;;;;;;5074692;28;20384;-75
2021/09/06 07:01:00;;;;;;;4.10;3.83;;;17.60;84.80;;;;;;5067188;28;20182;-75
2021/09/06 07:03:25;;;;;;;5.72;4.32;;;17.70;84.70;;;;;;5065669;28;20188;-75
2021/09/06 07:05:51;;;;;;;4.47;4.18;;;17.70;84.20;;;;;;5065556;28;20191;-75
2021/09/06 07:08:17;;;;;;;4.40;3.55;;;17.80;84.10;;;;;;5063899;28;20180;-75
2021/09/06 07:10:43;;;;;;;3.92;3.63;;;17.80;84.50;;;;;;5081430;28;20187;-75
2021/09/06 07:13:08;;;;;;;3.80;3.50;;;17.90;84.70;;;;;;5067657;28;20218;-75
2021/09/06 07:15:34;;;;;;;3.72;3.53;;;18.00;84.20;;;;;;5064549;28;20186;-75
2021/09/06 07:18:00;;;;;;;4.25;3.95;;;18.10;84.20;;;;;;5066007;28;20174;-76
2021/09/06 07:20:27;;;;;;;3.53;3.33;;;18.10;83.60;;;;;;5068009;28;20178;-76
2021/09/06 07:22:53;;;;;;;3.85;3.53;;;18.20;82.70;;;;;;5062298;28;20323;-75
2021/09/06 07:25:18;;;;;;;5.38;3.03;;;18.30;82.80;;;;;;5060181;28;20248;-75
2021/09/06 07:27:44;;;;;;;5.15;3.85;;;18.30;82.80;;;;;;5064236;28;20183;-76
2021/09/06 07:30:10;;;;;;;3.58;3.38;;;18.40;82.40;;;;;;5067287;28;20187;-75
2021/09/06 07:32:36;;;;;;;4.00;3.58;;;18.40;81.70;;;;;;5065394;28;20226;-74
2021/09/06 07:35:03;;;;;;;4.55;4.00;;;18.40;82.40;;;;;;5067387;28;20194;-75
2021/09/06 07:37:30;;;;;;;4.43;3.85;;;18.50;82.30;;;;;;5069795;28;20862;-75
2021/09/06 07:39:56;;;;;;;4.47;4.07;;;18.60;82.40;;;;;;5060318;28;20172;-75
2021/09/06 07:42:21;;;;;;;4.07;3.75;;;18.60;82.70;;;;;;5062745;28;20225;-74
2021/09/06 07:44:47;;;;;;;5.93;4.30;;;18.70;82.20;;;;;;5063603;28;20278;-76
2021/09/06 07:47:14;;;;;;;5.53;3.90;;;18.80;81.80;;;;;;5067010;28;20191;-76
2021/09/06 07:49:41;;;;;;;3.90;3.63;;;18.90;81.30;;;;;;5081954;28;20236;-75
2021/09/06 07:52:08;;;;;;;3.70;3.42;;;19.00;80.60;;;;;;5072433;28;20284;-75
2021/09/06 07:54:34;;;;;;;4.47;4.07;;;19.10;80.30;;;;;;5057658;28;20215;-76
2021/09/06 07:57:00;;;;;;;3.72;3.33;;;19.20;80.40;;;;;;5065023;28;20184;-76
2021/09/06 07:59:26;;;;;;;4.20;3.90;;;19.30;80.00;;;;;;5063313;28;20194;-77
2021/09/06 08:01:51;;;;;;;4.85;3.50;;;19.40;79.50;;;;;;5064953;28;20182;-80
2021/09/06 08:04:17;;;;;;;3.92;3.47;;;19.50;79.40;;;;;;5072262;28;20185;-73
2021/09/06 08:06:45;;;;;;;4.00;3.45;;;19.60;78.90;;;;;;5073222;28;20695;-73
2021/09/06 08:09:12;;;;;;;5.35;3.28;;;19.70;78.40;;;;;;5068694;28;20202;-74
2021/09/06 08:11:38;;;;;;;3.15;2.95;;;19.90;78.30;;;;;;5068862;28;20180;-76
2021/09/06 08:14:05;;;;;;;2.45;2.33;;;20.00;76.50;;;;;;5064290;28;20198;-76
2021/09/06 08:16:31;;;;;;;3.05;2.75;;;20.10;77.80;;;;;;5064429;28;20184;-76
2021/09/06 08:18:57;;;;;;;3.92;3.28;;;20.40;76.60;;;;;;5069376;28;20175;-77
2021/09/06 08:21:23;;;;;;;3.35;3.17;;;20.60;76.30;;;;;;5064906;28;20189;-75
2021/09/06 08:23:49;;;;;;;3.08;2.78;;;20.80;74.80;;;;;;5061439;28;20213;-76
2021/09/06 08:26:15;;;;;;;3.03;2.88;;;21.00;74.60;;;;;;5060185;28;20274;-76
2021/09/06 08:28:41;;;;;;;4.95;3.10;;;21.20;73.50;;;;;;5062407;28;20192;-75
2021/09/06 08:31:07;;;;;;;2.25;2.15;;;21.30;73.20;;;;;;5064047;28;20271;-75
2021/09/06 08:33:33;;;;;;;4.15;3.03;;;21.50;71.80;;;;;;5068379;28;20295;-76
2021/09/06 08:35:59;;;;;;;3.35;2.90;;;21.50;71.30;;;;;;5063715;28;20190;-74
2021/09/06 08:38:25;;;;;;;3.20;2.92;;;21.50;70.90;;;;;;5066220;28;20183;-75
2021/09/06 08:40:51;;;;;;;3.30;3.10;;;21.70;70.70;;;;;;5070791;28;20187;-76
2021/09/06 08:43:17;;;;;;;3.50;3.30;;;21.80;70.60;;;;;;5063849;28;20185;-76
2021/09/06 08:45:42;;;;;;;3.30;3.20;;;22.00;70.90;;;;;;5063970;28;20187;-76
2021/09/06 08:48:08;;;;;;;2.67;2.58;;;22.40;70.20;;;;;;5065737;28;20186;-76
2021/09/06 08:50:34;;;;;;;3.40;3.20;;;22.80;69.50;;;;;;5067594;28;20249;-76
2021/09/06 08:53:02;;;;;;;3.10;2.97;;;23.40;68.20;;;;;;5064588;28;20301;-76
2021/09/06 08:55:28;;;;;;;3.63;3.13;;;23.80;66.00;;;;;;5071316;28;20202;-76
2021/09/06 08:57:54;;;;;;;3.25;3.15;;;24.40;65.00;;;;;;5069829;28;20581;-77
2021/09/06 09:00:30;;;;;;;3.42;3.22;;;24.80;64.30;;;;;;5060443;28;20229;-76
2021/09/06 09:02:57;;;;;;;2.67;2.58;;;25.20;64.20;;;;;;5066858;28;20574;-77
2021/09/06 09:05:23;;;;;;;2.47;2.38;;;25.80;61.00;;;;;;5071882;28;20239;-77
2021/09/06 09:07:59;;;;;;;3.35;3.15;;;26.20;61.60;;;;;;5069406;28;20189;-77
2021/09/06 09:10:31;;;;;;;2.80;2.60;;;26.70;60.30;;;;;;5072884;28;20179;-77
2021/09/06 09:13:08;;;;;;;2.97;2.78;;;27.20;60.00;;;;;;5055733;28;20250;-77
2021/09/06 09:15:35;;;;;;;2.90;2.80;;;27.70;59.40;;;;;;5063829;28;20181;-76
2021/09/06 09:18:02;;;;;;;3.95;3.70;;;28.30;57.90;;;;;;5070906;28;20178;-76
2021/09/06 09:20:38;;;;;;;5.30;2.92;;;28.70;57.80;;;;;;5064068;28;20255;-76
2021/09/06 09:23:05;;;;;;;3.42;3.17;;;29.20;56.10;;;;;;5066555;28;20240;-76
2021/09/06 09:25:33;;;;;;;3.65;3.30;;;29.40;56.30;;;;;;5066493;28;20581;-78
2021/09/06 09:27:59;;;;;;;3.80;3.50;;;29.50;55.60;;;;;;5061689;28;20191;-77
2021/09/06 09:30:29;;;;;;;4.30;3.65;;;29.60;55.00;;;;;;5065040;28;20201;-77
2021/09/06 09:33:13;;;;;;;3.22;3.08;;;29.50;54.50;;;;;;5067624;28;20276;-77
2021/09/06 09:35:40;;;;;;;3.90;3.70;;;29.40;54.60;;;;;;5064734;28;20195;-76
2021/09/06 09:38:11;;;;;;;3.53;3.38;;;29.10;55.60;;;;;;5065543;28;20190;-77
2021/09/06 09:40:39;;;;;;;3.42;3.22;;;28.80;56.80;;;;;;5071828;28;20724;-75
2021/09/06 09:43:06;;;;;;;3.72;3.53;;;29.10;56.70;;;;;;5070230;28;20186;-77
2021/09/06 09:45:33;;;;;;;3.83;3.40;;;29.40;54.20;;;;;;5066734;28;20171;-76
2021/09/06 09:48:00;;;;;;;3.35;3.22;;;29.60;55.30;;;;;;5065330;28;20623;-75
2021/09/06 09:50:28;;;;;;;4.20;3.80;;;29.70;54.70;;;;;;5067138;28;20228;-76
2021/09/06 09:52:55;;;;;;;3.95;3.65;;;29.30;55.40;;;;;;5061852;28;20493;-76
2021/09/06 09:55:23;;;;;;;4.25;3.83;;;28.70;56.20;;;;;;5057681;28;20263;-76
2021/09/06 09:57:49;;;;;;;4.25;3.95;;;28.60;57.40;;;;;;5053078;28;21655;-77
2021/09/06 10:00:15;;;;;;;3.92;3.63;;;28.80;57.80;;;;;;5062380;28;20178;-76
2021/09/06 10:02:55;;;;;;;3.65;3.45;;;29.20;56.40;;;;;;5068222;28;20194;-77
2021/09/06 10:05:27;;;;;;;5.45;3.97;;;29.40;56.50;;;;;;5053746;28;20180;-76
2021/09/06 10:07:52;;;;;;;3.70;3.50;;;29.20;56.30;;;;;;5063234;28;20185;-76
2021/09/06 10:10:23;;;;;;;3.80;3.60;;;28.90;56.70;;;;;;5064841;28;20183;-76
2021/09/06 10:13:05;;;;;;;3.80;3.40;;;28.50;57.20;;;;;;5071843;28;20709;-76
2021/09/06 10:15:32;;;;;;;3.38;3.17;;;27.90;57.70;;;;;;5068509;28;20328;-76
2021/09/06 10:18:26;;;;;;;3.95;3.75;;;27.40;58.00;;;;;;5063884;28;22051;-76
2021/09/06 10:20:55;;;;;;;3.83;3.63;;;26.80;58.50;;;;;;5059997;28;20195;-76
2021/09/06 10:23:21;;;;;;;3.42;3.33;;;26.00;59.70;;;;;;5064054;28;20733;-76
2021/09/06 10:25:49;;;;;;;3.75;3.42;;;25.50;60.30;;;;;;5068617;28;20175;-76
2021/09/06 10:28:16;;;;;;;3.10;3.00;;;25.10;61.50;;;;;;5068537;28;20296;-76
2021/09/06 10:30:44;;;;;;;3.28;3.10;;;24.70;62.30;;;;;;5073369;28;20190;-76
2021/09/06 10:33:30;;;;;;;3.40;3.30;;;24.50;62.40;;;;;;5068475;28;20229;-76
2021/09/06 10:36:12;;;;;;;3.25;3.10;;;24.30;62.10;;;;;;5070618;28;20643;-76
2021/09/06 10:39:00;;;;;;;3.00;2.90;;;24.40;63.30;;;;;;5065178;28;20171;-76
2021/09/06 10:41:26;;;;;;;4.22;3.22;;;24.70;62.70;;;;;;5062979;28;20179;-76
2021/09/06 10:44:00;;;;;;;2.85;2.75;;;25.60;62.90;;;;;;5066205;28;20220;-76
2021/09/06 10:46:28;;;;;;;3.30;3.10;;;26.90;60.30;;;;;;5058618;28;20286;-77
2021/09/06 10:48:55;;;;;;;2.63;2.30;;;27.60;56.10;;;;;;5063415;28;20579;-77
2021/09/06 10:51:25;;;;;;;2.63;2.53;;;28.10;55.90;;;;;;5065300;28;20184;-77
2021/09/06 10:53:59;;;;;;;2.90;2.80;;;28.90;55.60;;;;;;5061571;28;21081;-77
2021/09/06 10:56:26;;;;;;;2.67;2.58;;;29.60;55.00;;;;;;5061667;28;20207;-77
2021/09/06 10:58:54;;;;;;;2.63;2.53;;;29.70;54.40;;;;;;5068188;28;20183;-77
2021/09/06 11:01:19;;;;;;;3.20;3.10;;;29.70;54.40;;;;;;5075996;28;20174;-77
2021/09/06 11:03:46;;;;;;;3.60;3.30;;;29.40;54.40;;;;;;5067988;28;20765;-77
2021/09/06 11:06:12;;;;;;;6.45;3.17;;;28.90;55.60;;;;;;5070850;28;20217;-77
2021/09/06 11:08:38;;;;;;;3.75;3.35;;;28.60;56.30;;;;;;5069817;28;20207;-77
2021/09/06 11:11:06;;;;;;;3.28;2.88;;;28.50;56.20;;;;;;5065025;28;20221;-77
2021/09/06 11:13:36;;;;;;;3.47;3.33;;;28.40;56.90;;;;;;5063800;28;20210;-77
2021/09/06 11:16:07;;;;;;;6.20;2.92;;;28.70;56.40;;;;;;5071342;28;20357;-77
2021/09/06 11:18:35;;;;;;;7.00;3.47;;;29.30;56.40;;;;;;5067686;28;20195;-79
2021/09/06 11:21:02;;;;;;;3.72;3.55;;;30.30;55.40;;;;;;5061496;28;20559;-79
2021/09/06 11:23:32;;;;;;;4.50;3.50;;;31.20;53.10;;;;;;5071531;28;20233;-78
2021/09/06 11:25:58;;;;;;;3.55;3.35;;;31.90;52.70;;;;;;5070200;28;20196;-77
2021/09/06 11:28:24;;;;;;;2.97;2.88;;;32.50;52.50;;;;;;5070229;28;20174;-74
2021/09/06 11:30:50;;;;;;;3.55;2.65;;;33.20;51.20;;;;;;5074334;28;20171;-77
2021/09/06 11:33:16;;;;;;;3.30;3.08;;;33.70;50.90;;;;;;5072944;28;20734;-77
2021/09/06 11:35:44;;;;;;;8.80;3.65;;;34.10;49.40;;;;;;5067324;28;20233;-77
2021/09/06 11:38:12;;;;;;;3.10;3.00;;;34.30;49.80;;;;;;5072282;28;20216;-77
2021/09/06 11:40:39;;;;;;;4.80;3.15;;;34.30;49.30;;;;;;5072599;28;20179;-77
2021/09/06 11:43:06;;;;;;;3.83;2.65;;;34.60;48.50;;;;;;5070399;28;20178;-77
2021/09/06 11:45:32;;;;;;;3.05;2.95;;;35.00;47.00;;;;;;5070931;28;20262;-77
2021/09/06 11:48:07;;;;;;;3.15;3.05;;;34.60;47.70;;;;;;5062896;28;21700;-77
2021/09/06 11:50:39;;;;;;;3.20;3.03;;;33.80;47.50;;;;;;5063001;28;20226;-78
2021/09/06 11:53:11;;;;;;;2.70;2.60;;;33.60;49.70;;;;;;5063882;28;20221;-77
2021/09/06 11:55:37;;;;;;;2.88;2.78;;;33.80;48.40;;;;;;5063627;28;20187;-78
2021/09/06 11:58:11;;;;;;;2.70;2.60;;;34.10;48.80;;;;;;5072346;28;20206;-77
2021/09/06 12:00:38;;;;;;;3.10;2.90;;;34.30;47.90;;;;;;5066587;28;20277;-76
2021/09/06 12:03:06;;;;;;;2.72;2.60;;;34.30;47.70;;;;;;5070316;28;20186;-77
2021/09/06 12:05:42;;;;;;;3.53;3.35;;;34.60;49.70;;;;;;5069123;28;20175;-76
2021/09/06 12:08:15;;;;;;;2.85;2.75;;;34.20;47.50;;;;;;5069323;28;20239;-77
2021/09/06 12:10:43;;;;;;;3.08;2.97;;;32.90;48.00;;;;;;5068057;28;20263;-76
2021/09/06 12:13:16;;;;;;;2.97;2.88;;;31.70;50.40;;;;;;5059439;28;20215;-75
2021/09/06 12:15:59;;;;;;;2.83;2.70;;;30.50;51.70;;;;;;5069711;28;20191;-75
2021/09/06 12:18:47;;;;;;;3.47;3.13;;;30.00;52.80;;;;;;5067289;28;20304;-78
2021/09/06 12:21:17;;;;;;;3.10;3.00;;;29.50;53.30;;;;;;5083188;28;20239;-76
2021/09/06 12:23:47;;;;;;;4.40;3.13;;;29.10;55.50;;;;;;5073806;28;20277;-76
2021/09/06 12:26:14;;;;;;;3.00;2.88;;;29.40;55.20;;;;;;5062132;28;20186;-76
2021/09/06 12:28:56;;;;;;;3.42;2.85;;;29.90;53.80;;;;;;5064794;28;20183;-76
2021/09/06 12:31:22;;;;;;;3.72;2.70;;;30.00;52.50;;;;;;5062982;28;20225;-76
2021/09/06 12:33:48;;;;;;;3.03;2.88;;;29.60;53.70;;;;;;5070127;28;20229;-78
2021/09/06 12:36:15;;;;;;;2.45;2.35;;;29.50;54.50;;;;;;5060069;28;20225;-78
2021/09/06 12:38:42;;;;;;;3.55;2.47;;;29.70;54.20;;;;;;5066448;28;20191;-77
2021/09/06 12:41:07;;;;;;;2.58;2.50;;;29.80;53.80;;;;;;5063984;28;20189;-78
2021/09/06 12:43:33;;;;;;;2.97;2.80;;;29.90;53.70;;;;;;5068220;28;20179;-77
2021/09/06 12:45:59;;;;;;;2.95;2.85;;;30.30;53.30;;;;;;5068778;28;20728;-78